Time;durP1;ratioP1;P1;durP2;ratioP2;P2;SDS_P1;SDS_P2;PMS_P1;PMS_P2;Temp;Humidity;BMP_temperature;BMP_pressure;BME280_temperature;BME280_humidity;BME280_pressure;Samples;Min_cycle;Max_cycle;Signal;HPM_P1;HPM_P2
2022/01/11 00:01:41;;;;;;;41.63;26.15;;;;;;;;;;5094108;28;20178;-70
2022/01/11 00:04:07;;;;;;;44.15;27.40;;;;;;;;;;5095524;28;20222;-70
2022/01/11 00:06:40;;;;;;;40.63;24.33;;;;;;;;;;5095328;28;20192;-65
2022/01/11 00:09:18;;;;;;;46.17;26.35;;;;;;;;;;5095280;28;20169;-65
2022/01/11 00:11:44;;;;;;;31.52;21.92;;;;;;;;;;5095084;28;20195;-68
2022/01/11 00:14:10;;;;;;;37.87;23.63;;;;;;;;;;5094976;28;20171;-65
2022/01/11 00:16:35;;;;;;;33.97;22.57;;;;;;;;;;5094830;28;20513;-64
2022/01/11 00:19:05;;;;;;;36.40;22.50;;;;;;;;;;5095008;28;20418;-65
2022/01/11 00:21:32;;;;;;;42.50;23.70;;;;;;;;;;5095190;28;20488;-64
2022/01/11 00:26:42;;;;;;;24.27;18.92;;;;;;;;;;5095114;28;20190;-64
2022/01/11 00:29:09;;;;;;;34.53;20.13;;;;;;;;;;5095041;28;20634;-64
2022/01/11 00:31:36;;;;;;;35.40;22.37;;;;;;;;;;5095066;28;20189;-65
2022/01/11 00:34:03;;;;;;;36.08;22.75;;;;;;;;;;5094933;28;20435;-65
2022/01/11 00:36:40;;;;;;;46.03;26.63;;;;;;;;;;5094837;28;20178;-66
2022/01/11 00:39:07;;;;;;;42.75;24.52;;;;;;;;;;5094570;28;20203;-64
2022/01/11 00:41:33;;;;;;;39.05;23.13;;;;;;;;;;5094586;28;20602;-66
2022/01/11 00:43:59;;;;;;;37.20;24.17;;;;;;;;;;5094425;28;20277;-64
2022/01/11 00:46:25;;;;;;;54.10;25.20;;;;;;;;;;5094511;28;20777;-66
2022/01/11 00:48:51;;;;;;;50.03;23.10;;;;;;;;;;5094726;28;20404;-65
2022/01/11 00:51:17;;;;;;;31.33;21.13;;;;;;;;;;5094387;28;20167;-66
2022/01/11 00:53:43;;;;;;;65.30;21.67;;;;;;;;;;5094679;28;20174;-64
2022/01/11 00:56:11;;;;;;;33.55;22.70;;;;;;;;;;5094347;28;20411;-64
2022/01/11 00:58:37;;;;;;;40.75;23.85;;;;;;;;;;5094234;28;20200;-65
2022/01/11 01:01:06;;;;;;;44.23;23.63;;;;;;;;;;5094184;28;20199;-64
2022/01/11 01:03:32;;;;;;;64.85;23.10;;;;;;;;;;5094124;28;20400;-66
2022/01/11 01:05:58;;;;;;;51.17;24.23;;;;;;;;;;5094249;28;20171;-70
2022/01/11 01:08:24;;;;;;;34.47;21.60;;;;;;;;;;5094091;28;20401;-69
2022/01/11 01:10:50;;;;;;;32.47;20.85;;;;;;;;;;5094287;28;20178;-69
2022/01/11 01:13:24;;;;;;;37.35;21.35;;;;;;;;;;5094041;28;20194;-69
2022/01/11 01:15:51;;;;;;;34.60;21.35;;;;;;;;;;5093991;28;20302;-67
2022/01/11 01:18:21;;;;;;;37.38;21.58;;;;;;;;;;5093901;28;20201;-66
2022/01/11 01:20:47;;;;;;;42.50;20.20;;;;;;;;;;5093848;28;20570;-65
2022/01/11 01:23:13;;;;;;;28.75;20.08;;;;;;;;;;5093676;28;20640;-65
2022/01/11 01:25:40;;;;;;;27.35;19.75;;;;;;;;;;5093105;28;20230;-64
2022/01/11 01:28:06;;;;;;;26.98;18.25;;;;;;;;;;5092550;28;20611;-66
2022/01/11 01:30:36;;;;;;;27.90;18.75;;;;;;;;;;5094072;28;20601;-64
2022/01/11 01:33:03;;;;;;;27.77;18.88;;;;;;;;;;5093760;28;20656;-64
2022/01/11 01:35:34;;;;;;;27.27;19.45;;;;;;;;;;5093952;28;20167;-65
2022/01/11 01:38:00;;;;;;;26.45;19.13;;;;;;;;;;5093980;28;20178;-65
2022/01/11 01:40:33;;;;;;;28.52;19.10;;;;;;;;;;5092426;28;20236;-64
2022/01/11 01:42:59;;;;;;;29.92;19.23;;;;;;;;;;5093566;28;20159;-68
2022/01/11 01:45:25;;;;;;;29.13;20.33;;;;;;;;;;5093473;28;20244;-65
2022/01/11 01:47:57;;;;;;;26.67;19.48;;;;;;;;;;5093761;28;20401;-66
2022/01/11 01:50:23;;;;;;;37.08;20.70;;;;;;;;;;5093763;28;20175;-66
2022/01/11 01:52:49;;;;;;;33.80;20.23;;;;;;;;;;5093500;28;20559;-67
2022/01/11 01:55:15;;;;;;;38.55;21.55;;;;;;;;;;5093714;28;20182;-65
2022/01/11 01:57:41;;;;;;;30.63;20.08;;;;;;;;;;5093420;28;20199;-67
2022/01/11 02:00:11;;;;;;;115.45;21.70;;;;;;;;;;5093443;28;20175;-67
2022/01/11 02:02:38;;;;;;;79.97;22.05;;;;;;;;;;5093364;28;20155;-70
2022/01/11 02:05:06;;;;;;;79.13;21.63;;;;;;;;;;5093308;28;20206;-68
2022/01/11 02:07:32;;;;;;;49.00;19.67;;;;;;;;;;5093337;28;20243;-68
2022/01/11 02:09:58;;;;;;;30.00;19.10;;;;;;;;;;5093389;28;20535;-69
2022/01/11 02:12:24;;;;;;;30.02;17.70;;;;;;;;;;5093390;28;20621;-69
2022/01/11 02:14:51;;;;;;;61.45;20.63;;;;;;;;;;5093334;28;20482;-69
2022/01/11 02:17:17;;;;;;;43.58;18.63;;;;;;;;;;5093136;28;20231;-66
2022/01/11 02:19:43;;;;;;;27.58;18.25;;;;;;;;;;5093265;28;20167;-65
2022/01/11 02:22:09;;;;;;;30.15;18.75;;;;;;;;;;5093337;28;20171;-65
2022/01/11 02:24:35;;;;;;;25.90;17.60;;;;;;;;;;5093133;28;20213;-66
2022/01/11 02:27:01;;;;;;;23.48;18.05;;;;;;;;;;5093213;28;20397;-65
2022/01/11 02:29:30;;;;;;;26.50;18.40;;;;;;;;;;5093248;28;20181;-67
2022/01/11 02:31:56;;;;;;;63.55;19.50;;;;;;;;;;5093096;28;20626;-65
2022/01/11 02:34:22;;;;;;;33.83;20.30;;;;;;;;;;5093132;28;20167;-67
2022/01/11 02:36:48;;;;;;;39.95;19.10;;;;;;;;;;5096323;28;20389;-69
2022/01/11 02:39:14;;;;;;;56.77;20.27;;;;;;;;;;5096932;28;20171;-65
2022/01/11 02:41:54;;;;;;;41.88;19.92;;;;;;;;;;5097065;28;20393;-66
2022/01/11 02:44:20;;;;;;;27.23;18.15;;;;;;;;;;5096845;28;20734;-64
2022/01/11 02:46:46;;;;;;;31.83;19.70;;;;;;;;;;5096826;28;20159;-69
2022/01/11 02:49:12;;;;;;;31.63;17.60;;;;;;;;;;5096703;28;20208;-67
2022/01/11 02:51:38;;;;;;;24.83;17.67;;;;;;;;;;5096796;28;20903;-68
2022/01/11 02:54:05;;;;;;;25.52;18.83;;;;;;;;;;5096650;28;20393;-69
2022/01/11 02:56:31;;;;;;;27.20;17.83;;;;;;;;;;5096670;28;20529;-68
2022/01/11 02:58:58;;;;;;;25.73;16.80;;;;;;;;;;5096639;28;20213;-67
2022/01/11 03:01:24;;;;;;;25.38;17.02;;;;;;;;;;5096534;28;20238;-69
2022/01/11 03:03:51;;;;;;;25.73;18.48;;;;;;;;;;5096684;28;20234;-66
2022/01/11 03:06:17;;;;;;;30.42;18.42;;;;;;;;;;5096430;28;20171;-68
2022/01/11 03:08:44;;;;;;;25.93;16.40;;;;;;;;;;5096359;28;20246;-64
2022/01/11 03:11:13;;;;;;;26.30;16.88;;;;;;;;;;5096394;28;20884;-64
2022/01/11 03:13:41;;;;;;;25.08;16.55;;;;;;;;;;5096361;28;20167;-64
2022/01/11 03:16:07;;;;;;;25.55;16.95;;;;;;;;;;5094782;28;20770;-65
2022/01/11 03:18:33;;;;;;;22.48;16.58;;;;;;;;;;5096304;28;20168;-64
2022/01/11 03:21:00;;;;;;;23.60;16.80;;;;;;;;;;5096127;28;20171;-64
2022/01/11 03:23:26;;;;;;;31.23;18.02;;;;;;;;;;5096378;28;20171;-65
2022/01/11 03:25:52;;;;;;;25.23;17.23;;;;;;;;;;5095944;28;20206;-64
2022/01/11 03:28:19;;;;;;;32.70;17.98;;;;;;;;;;5096275;28;20409;-64
2022/01/11 03:30:45;;;;;;;28.13;17.50;;;;;;;;;;5095975;28;20491;-64
2022/01/11 03:33:11;;;;;;;28.10;17.10;;;;;;;;;;5095930;28;20205;-63
2022/01/11 03:35:38;;;;;;;28.10;17.10;;;;;;;;;;5094624;28;20537;-64
2022/01/11 03:38:05;;;;;;;28.48;18.00;;;;;;;;;;5095776;28;20634;-64
2022/01/11 03:40:31;;;;;;;27.67;17.80;;;;;;;;;;5095750;28;20620;-64
2022/01/11 03:42:57;;;;;;;28.58;18.58;;;;;;;;;;5095746;28;20194;-64
2022/01/11 03:45:24;;;;;;;28.60;18.80;;;;;;;;;;5095624;28;20640;-65
2022/01/11 03:47:51;;;;;;;28.52;17.98;;;;;;;;;;5094655;28;20389;-66
2022/01/11 03:50:18;;;;;;;26.13;17.85;;;;;;;;;;5095576;28;20171;-68
2022/01/11 03:52:45;;;;;;;34.95;18.20;;;;;;;;;;5095549;28;20163;-69
2022/01/11 03:55:12;;;;;;;21.75;16.52;;;;;;;;;;5095516;28;20172;-69
2022/01/11 03:57:39;;;;;;;34.55;19.10;;;;;;;;;;5095249;28;20167;-69
2022/01/11 04:00:15;;;;;;;37.55;18.30;;;;;;;;;;5094752;28;20159;-66
2022/01/11 04:02:42;;;;;;;30.27;18.92;;;;;;;;;;5095320;28;20251;-69
2022/01/11 04:05:08;;;;;;;31.55;18.88;;;;;;;;;;5095232;28;20203;-65
2022/01/11 04:07:34;;;;;;;29.85;18.58;;;;;;;;;;5095249;28;20174;-71
2022/01/11 04:10:02;;;;;;;47.63;19.05;;;;;;;;;;5095187;28;20579;-65
2022/01/11 04:12:28;;;;;;;28.08;18.88;;;;;;;;;;5093852;28;20167;-67
2022/01/11 04:14:54;;;;;;;29.65;18.95;;;;;;;;;;5094659;28;20539;-65
2022/01/11 04:17:20;;;;;;;33.20;18.40;;;;;;;;;;5094702;28;20223;-65
2022/01/11 04:19:46;;;;;;;26.30;17.42;;;;;;;;;;5094960;28;20716;-66
2022/01/11 04:22:12;;;;;;;33.22;18.60;;;;;;;;;;5095219;28;20163;-66
2022/01/11 04:24:38;;;;;;;24.27;16.80;;;;;;;;;;5095146;28;20293;-66
2022/01/11 04:27:04;;;;;;;25.75;16.92;;;;;;;;;;5094900;28;20228;-66
2022/01/11 04:29:30;;;;;;;32.15;17.42;;;;;;;;;;5094828;28;20167;-66
2022/01/11 04:31:56;;;;;;;26.57;17.03;;;;;;;;;;5094849;28;20198;-67
2022/01/11 04:34:22;;;;;;;22.97;16.00;;;;;;;;;;5094801;28;20492;-65
2022/01/11 04:36:48;;;;;;;43.47;18.35;;;;;;;;;;5094933;28;20397;-69
2022/01/11 04:39:14;;;;;;;36.70;20.27;;;;;;;;;;5094884;28;20167;-66
2022/01/11 04:41:41;;;;;;;37.70;25.80;;;;;;;;;;5094869;28;20167;-67
2022/01/11 04:44:07;;;;;;;26.65;17.80;;;;;;;;;;5094469;28;20219;-69
2022/01/11 04:46:33;;;;;;;23.48;16.88;;;;;;;;;;5094822;28;20178;-65
2022/01/11 04:49:00;;;;;;;26.13;17.98;;;;;;;;;;5094481;28;20197;-64
2022/01/11 04:51:26;;;;;;;24.15;17.25;;;;;;;;;;5094456;28;20163;-64
2022/01/11 04:53:52;;;;;;;27.02;16.92;;;;;;;;;;5094413;28;20682;-68
2022/01/11 04:56:19;;;;;;;22.88;16.35;;;;;;;;;;5094415;28;20175;-65
2022/01/11 04:58:45;;;;;;;22.27;15.45;;;;;;;;;;5094145;28;20178;-64
2022/01/11 05:01:11;;;;;;;21.58;16.00;;;;;;;;;;5094231;28;20174;-64
2022/01/11 05:03:37;;;;;;;26.80;16.80;;;;;;;;;;5094121;28;20175;-64
2022/01/11 05:06:04;;;;;;;26.02;17.17;;;;;;;;;;5094157;28;20406;-65
2022/01/11 05:08:30;;;;;;;27.85;16.42;;;;;;;;;;5094052;28;20254;-64
2022/01/11 05:10:56;;;;;;;55.65;28.70;;;;;;;;;;5094337;28;20186;-65
2022/01/11 05:13:22;;;;;;;51.78;32.22;;;;;;;;;;5094268;28;20159;-66
2022/01/11 05:15:49;;;;;;;21.27;15.40;;;;;;;;;;5094253;28;20218;-69
2022/01/11 05:18:15;;;;;;;32.60;17.40;;;;;;;;;;5093761;28;20915;-64
2022/01/11 05:20:41;;;;;;;22.02;16.48;;;;;;;;;;5094178;28;20179;-65
2022/01/11 05:23:08;;;;;;;23.40;16.02;;;;;;;;;;5093874;28;20171;-63
2022/01/11 05:25:33;;;;;;;27.30;17.00;;;;;;;;;;5093643;28;20211;-64
2022/01/11 05:28:00;;;;;;;24.00;15.63;;;;;;;;;;5093770;28;20163;-66
2022/01/11 05:30:26;;;;;;;28.23;16.40;;;;;;;;;;5092390;28;20767;-66
2022/01/11 05:32:53;;;;;;;27.23;17.15;;;;;;;;;;5093686;28;20163;-65
2022/01/11 05:35:20;;;;;;;30.73;17.80;;;;;;;;;;5093761;28;20171;-64
2022/01/11 05:37:46;;;;;;;30.73;20.25;;;;;;;;;;5093647;28;20515;-66
2022/01/11 05:40:13;;;;;;;33.55;20.42;;;;;;;;;;5093687;28;20175;-68
2022/01/11 05:42:39;;;;;;;35.45;19.23;;;;;;;;;;5093617;28;20575;-66
2022/01/11 05:45:07;;;;;;;27.80;18.10;;;;;;;;;;5093539;28;20288;-64
2022/01/11 05:47:33;;;;;;;23.58;16.52;;;;;;;;;;5093569;28;20513;-66
2022/01/11 05:50:00;;;;;;;21.45;15.45;;;;;;;;;;5093498;28;20622;-65
2022/01/11 05:52:26;;;;;;;47.53;21.77;;;;;;;;;;5093401;28;20201;-63
2022/01/11 05:54:52;;;;;;;42.25;22.73;;;;;;;;;;5093278;28;20535;-65
2022/01/11 05:57:18;;;;;;;31.20;18.35;;;;;;;;;;5093382;28;20216;-65
2022/01/11 05:59:44;;;;;;;38.17;20.48;;;;;;;;;;5093368;28;20206;-64
2022/01/11 06:02:10;;;;;;;33.13;19.97;;;;;;;;;;5093424;28;20167;-66
2022/01/11 06:04:36;;;;;;;43.10;22.60;;;;;;;;;;5093216;28;20457;-68
2022/01/11 06:07:02;;;;;;;30.67;17.65;;;;;;;;;;5093420;28;20881;-68
2022/01/11 06:09:28;;;;;;;36.67;17.40;;;;;;;;;;5093552;28;20529;-66
2022/01/11 06:11:55;;;;;;;28.35;16.27;;;;;;;;;;5096739;28;20502;-66
2022/01/11 06:14:21;;;;;;;28.35;15.10;;;;;;;;;;5097435;28;20167;-67
2022/01/11 06:16:48;;;;;;;28.48;15.98;;;;;;;;;;5097263;28;20230;-68
2022/01/11 06:19:14;;;;;;;42.13;18.05;;;;;;;;;;5097397;28;20171;-67
2022/01/11 06:21:40;;;;;;;53.80;20.83;;;;;;;;;;5096025;28;20174;-68
2022/01/11 06:24:07;;;;;;;45.97;22.35;;;;;;;;;;5097849;28;20230;-64
2022/01/11 06:26:33;;;;;;;52.05;18.73;;;;;;;;;;5097344;28;20677;-64
2022/01/11 06:29:01;;;;;;;63.45;19.73;;;;;;;;;;5097701;28;20546;-65
2022/01/11 06:31:27;;;;;;;38.00;18.35;;;;;;;;;;5097375;28;20160;-64
2022/01/11 06:33:53;;;;;;;63.90;19.83;;;;;;;;;;5097160;28;20160;-64
2022/01/11 06:36:20;;;;;;;89.25;19.05;;;;;;;;;;5097431;28;20243;-64
2022/01/11 06:38:46;;;;;;;31.15;15.38;;;;;;;;;;5097181;28;20160;-64
2022/01/11 06:41:13;;;;;;;35.60;14.60;;;;;;;;;;5096930;28;20537;-64
2022/01/11 06:43:39;;;;;;;106.75;22.33;;;;;;;;;;5095552;28;20617;-65
2022/01/11 06:46:06;;;;;;;65.13;18.23;;;;;;;;;;5096850;28;20213;-65
2022/01/11 06:48:32;;;;;;;41.05;15.98;;;;;;;;;;5096739;28;20274;-64
2022/01/11 06:50:58;;;;;;;64.90;18.63;;;;;;;;;;5096937;28;20171;-64
2022/01/11 06:53:24;;;;;;;69.15;18.30;;;;;;;;;;5096653;28;20171;-64
2022/01/11 06:55:50;;;;;;;54.97;18.25;;;;;;;;;;5096627;28;20194;-64
2022/01/11 06:58:17;;;;;;;119.20;22.70;;;;;;;;;;5096565;28;20167;-65
2022/01/11 07:00:43;;;;;;;49.45;18.20;;;;;;;;;;5096483;28;20179;-64
2022/01/11 07:03:09;;;;;;;99.60;24.67;;;;;;;;;;5096607;28;20163;-65
2022/01/11 07:05:36;;;;;;;57.95;20.48;;;;;;;;;;5096257;28;20302;-64
2022/01/11 07:08:02;;;;;;;57.45;19.73;;;;;;;;;;5096374;28;20254;-63
2022/01/11 07:10:28;;;;;;;33.13;17.50;;;;;;;;;;5096247;28;20224;-67
2022/01/11 07:12:55;;;;;;;63.20;21.37;;;;;;;;;;5096441;28;20389;-64
2022/01/11 07:15:21;;;;;;;45.17;20.50;;;;;;;;;;5096173;28;20386;-64
2022/01/11 07:17:48;;;;;;;57.40;20.47;;;;;;;;;;5096180;28;20183;-64
2022/01/11 07:20:14;;;;;;;42.80;18.30;;;;;;;;;;5096270;28;20400;-65
2022/01/11 07:22:40;;;;;;;35.10;19.13;;;;;;;;;;5096066;28;20213;-64
2022/01/11 07:25:06;;;;;;;38.85;19.23;;;;;;;;;;5096167;28;20216;-71
2022/01/11 07:27:34;;;;;;;63.70;18.63;;;;;;;;;;5096026;28;20170;-66
2022/01/11 07:30:00;;;;;;;59.55;17.23;;;;;;;;;;5095908;28;20629;-66
2022/01/11 07:32:26;;;;;;;62.80;18.02;;;;;;;;;;5095862;28;20178;-65
2022/01/11 07:34:52;;;;;;;119.50;26.02;;;;;;;;;;5096182;28;20168;-65
2022/01/11 07:37:18;;;;;;;56.88;19.23;;;;;;;;;;5096133;28;20216;-66
2022/01/11 07:39:44;;;;;;;85.95;19.35;;;;;;;;;;5095796;28;20618;-66
2022/01/11 07:42:10;;;;;;;79.75;21.25;;;;;;;;;;5095603;28;20167;-68
2022/01/11 07:44:36;;;;;;;63.67;25.65;;;;;;;;;;5095573;28;20205;-67
2022/01/11 07:47:04;;;;;;;64.43;21.05;;;;;;;;;;5095615;28;20167;-67
2022/01/11 07:49:30;;;;;;;66.65;24.85;;;;;;;;;;5095916;28;20268;-66
2022/01/11 07:51:56;;;;;;;101.40;21.42;;;;;;;;;;5095512;28;20164;-67
2022/01/11 07:54:22;;;;;;;48.53;22.63;;;;;;;;;;5095466;28;20300;-66
2022/01/11 07:56:48;;;;;;;89.63;29.67;;;;;;;;;;5095509;28;20167;-66
2022/01/11 07:59:14;;;;;;;94.97;22.88;;;;;;;;;;5095467;28;20170;-67
2022/01/11 08:01:40;;;;;;;53.43;20.23;;;;;;;;;;5095364;28;20178;-67
2022/01/11 08:04:06;;;;;;;65.90;19.85;;;;;;;;;;5095545;28;20502;-66
2022/01/11 08:06:35;;;;;;;47.58;19.35;;;;;;;;;;5095366;28;20174;-65
2022/01/11 08:09:01;;;;;;;184.15;18.17;;;;;;;;;;5095213;28;20163;-66
2022/01/11 08:11:28;;;;;;;85.50;23.37;;;;;;;;;;5095296;28;20237;-65
2022/01/11 08:13:54;;;;;;;80.05;19.25;;;;;;;;;;5095005;28;20523;-65
2022/01/11 08:16:19;;;;;;;59.35;18.60;;;;;;;;;;5094907;28;20689;-66
2022/01/11 08:18:45;;;;;;;58.53;17.93;;;;;;;;;;5095043;28;20191;-66
2022/01/11 08:21:12;;;;;;;52.67;18.00;;;;;;;;;;5095053;28;20474;-67
2022/01/11 08:23:38;;;;;;;55.83;17.88;;;;;;;;;;5094899;28;20393;-67
2022/01/11 08:26:05;;;;;;;43.88;16.83;;;;;;;;;;5094876;28;20167;-65
2022/01/11 08:28:31;;;;;;;43.75;17.40;;;;;;;;;;5094838;28;20170;-67
2022/01/11 08:30:57;;;;;;;82.40;18.97;;;;;;;;;;5094953;28;20174;-68
2022/01/11 08:33:24;;;;;;;41.05;17.10;;;;;;;;;;5094397;28;20416;-66
2022/01/11 08:35:50;;;;;;;33.40;16.45;;;;;;;;;;5094934;28;20159;-67
2022/01/11 08:38:16;;;;;;;28.88;16.20;;;;;;;;;;5094742;28;20236;-65
2022/01/11 08:40:42;;;;;;;64.63;17.15;;;;;;;;;;5094789;28;20173;-67
2022/01/11 08:43:08;;;;;;;65.00;18.58;;;;;;;;;;5093360;28;20273;-67
2022/01/11 08:45:35;;;;;;;32.55;18.08;;;;;;;;;;5094539;28;20206;-67
2022/01/11 08:48:01;;;;;;;61.08;20.40;;;;;;;;;;5094642;28;20167;-67
2022/01/11 08:50:27;;;;;;;36.88;19.42;;;;;;;;;;5094492;28;20653;-67
2022/01/11 08:52:53;;;;;;;42.65;19.92;;;;;;;;;;5094492;28;20709;-67
2022/01/11 08:55:19;;;;;;;47.47;18.60;;;;;;;;;;5094368;28;20250;-67
2022/01/11 08:57:45;;;;;;;44.70;18.83;;;;;;;;;;5094669;28;20504;-67
2022/01/11 09:00:16;;;;;;;58.45;19.55;;;;;;;;;;5094349;28;20171;-67
2022/01/11 09:02:52;;;;;;;78.30;20.35;;;;;;;;;;5094272;28;20496;-68
2022/01/11 09:05:19;;;;;;;43.25;18.42;;;;;;;;;;5092901;28;20213;-67
2022/01/11 09:07:45;;;;;;;28.25;17.20;;;;;;;;;;5093976;28;20251;-67
2022/01/11 09:10:12;;;;;;;85.55;19.73;;;;;;;;;;5094131;28;20705;-67
2022/01/11 09:12:38;;;;;;;117.47;20.70;;;;;;;;;;5094181;28;20167;-66
2022/01/11 09:15:05;;;;;;;89.13;23.20;;;;;;;;;;5094176;28;20221;-66
2022/01/11 09:17:31;;;;;;;51.28;23.00;;;;;;;;;;5093993;28;20220;-66
2022/01/11 09:19:57;;;;;;;64.10;20.40;;;;;;;;;;5094061;28;20634;-67
2022/01/11 09:22:23;;;;;;;40.88;19.85;;;;;;;;;;5094061;28;20390;-66
2022/01/11 09:24:49;;;;;;;64.97;20.77;;;;;;;;;;5093902;28;20229;-66
2022/01/11 09:27:15;;;;;;;50.30;19.97;;;;;;;;;;5093855;28;20417;-67
2022/01/11 09:29:43;;;;;;;33.03;19.05;;;;;;;;;;5092665;28;20409;-69
2022/01/11 09:32:09;;;;;;;60.17;20.83;;;;;;;;;;5093863;28;20159;-69
2022/01/11 09:34:37;;;;;;;70.07;25.73;;;;;;;;;;5093912;28;20576;-66
2022/01/11 09:37:04;;;;;;;111.50;23.42;;;;;;;;;;5093832;28;20213;-65
2022/01/11 09:39:30;;;;;;;71.63;21.55;;;;;;;;;;5093768;28;20606;-65
2022/01/11 09:41:58;;;;;;;50.63;19.97;;;;;;;;;;5093664;28;20175;-65
2022/01/11 09:44:25;;;;;;;31.75;18.83;;;;;;;;;;5093167;28;20985;-66
2022/01/11 09:46:50;;;;;;;40.83;18.60;;;;;;;;;;5093137;28;20245;-66
2022/01/11 09:49:16;;;;;;;159.77;21.50;;;;;;;;;;5093637;28;20191;-66
2022/01/11 09:51:42;;;;;;;30.25;17.98;;;;;;;;;;5093692;28;20401;-66
2022/01/11 09:54:09;;;;;;;94.83;22.10;;;;;;;;;;5093705;28;20171;-67
2022/01/11 09:56:36;;;;;;;34.88;19.15;;;;;;;;;;5093480;28;20408;-67
2022/01/11 09:59:02;;;;;;;93.57;23.20;;;;;;;;;;5093458;28;20204;-67
2022/01/11 10:01:28;;;;;;;36.63;21.55;;;;;;;;;;5093611;28;20622;-67
2022/01/11 10:03:57;;;;;;;134.80;28.13;;;;;;;;;;5093422;28;20216;-67
2022/01/11 10:06:24;;;;;;;41.65;23.10;;;;;;;;;;5093385;28;20187;-67
2022/01/11 10:08:50;;;;;;;28.73;18.83;;;;;;;;;;5093254;28;20194;-65
2022/01/11 10:11:33;;;;;;;67.72;19.67;;;;;;;;;;5093298;28;20622;-66
2022/01/11 10:13:59;;;;;;;47.78;18.23;;;;;;;;;;5093298;28;20163;-67
2022/01/11 10:16:25;;;;;;;62.53;19.37;;;;;;;;;;5093118;28;20227;-68
2022/01/11 10:18:53;;;;;;;45.42;19.35;;;;;;;;;;5093357;28;20398;-68
2022/01/11 10:21:33;;;;;;;30.17;18.40;;;;;;;;;;5093374;28;20190;-69
2022/01/11 10:23:59;;;;;;;34.97;18.05;;;;;;;;;;5093007;28;20622;-68
2022/01/11 10:26:40;;;;;;;111.85;21.02;;;;;;;;;;5093347;28;20239;-69
2022/01/11 10:29:23;;;;;;;38.40;20.05;;;;;;;;;;5093449;28;20198;-66
2022/01/11 10:31:49;;;;;;;34.28;17.55;;;;;;;;;;5093388;28;20243;-67
2022/01/11 10:34:15;;;;;;;118.13;30.00;;;;;;;;;;5093261;28;20164;-66
2022/01/11 10:36:47;;;;;;;58.27;22.33;;;;;;;;;;5093262;28;20201;-65
2022/01/11 10:39:28;;;;;;;104.30;23.52;;;;;;;;;;5093069;28;20409;-68
2022/01/11 10:41:54;;;;;;;39.47;19.55;;;;;;;;;;5093091;28;20159;-68
2022/01/11 10:44:39;;;;;;;35.13;20.65;;;;;;;;;;5092998;28;20347;-67
2022/01/11 10:47:05;;;;;;;47.78;25.23;;;;;;;;;;5093053;28;20171;-67
2022/01/11 10:49:32;;;;;;;62.50;19.58;;;;;;;;;;5093048;28;20256;-65
2022/01/11 10:52:16;;;;;;;47.22;20.52;;;;;;;;;;5093334;28;20190;-68
2022/01/11 10:54:42;;;;;;;59.58;19.63;;;;;;;;;;5093244;28;20202;-66
2022/01/11 10:57:37;;;;;;;68.35;24.15;;;;;;;;;;5093546;28;20181;-67
2022/01/11 11:00:17;;;;;;;90.78;22.80;;;;;;;;;;5094805;28;20187;-67
2022/01/11 11:02:44;;;;;;;76.45;21.23;;;;;;;;;;5096841;28;20178;-68
2022/01/11 11:05:16;;;;;;;35.13;20.98;;;;;;;;;;5096577;28;20237;-71
2022/01/11 11:07:43;;;;;;;52.05;21.70;;;;;;;;;;5096447;28;20242;-68
2022/01/11 11:10:09;;;;;;;48.78;20.80;;;;;;;;;;5096538;28;20166;-67
2022/01/11 11:12:35;;;;;;;30.55;18.08;;;;;;;;;;5096708;28;20163;-68
2022/01/11 11:15:03;;;;;;;58.80;19.80;;;;;;;;;;5096396;28;20242;-68
2022/01/11 11:17:29;;;;;;;41.42;19.48;;;;;;;;;;5096309;28;20215;-67
2022/01/11 11:19:56;;;;;;;45.92;22.42;;;;;;;;;;5096594;28;20185;-68
2022/01/11 11:22:24;;;;;;;39.08;22.00;;;;;;;;;;5096332;28;20167;-67
2022/01/11 11:24:50;;;;;;;41.08;21.15;;;;;;;;;;5096439;28;20283;-69
2022/01/11 11:27:16;;;;;;;44.55;22.23;;;;;;;;;;5096235;28;20167;-67
2022/01/11 11:29:43;;;;;;;34.95;20.27;;;;;;;;;;5096385;28;20171;-67
2022/01/11 11:32:09;;;;;;;40.10;22.25;;;;;;;;;;5096075;28;20633;-67
2022/01/11 11:34:35;;;;;;;38.20;21.20;;;;;;;;;;5096095;28;20178;-68
2022/01/11 11:37:05;;;;;;;36.03;22.23;;;;;;;;;;5096016;28;20202;-67
2022/01/11 11:39:31;;;;;;;43.85;25.42;;;;;;;;;;5095930;28;20168;-68
2022/01/11 11:41:59;;;;;;;43.97;24.20;;;;;;;;;;5095898;28;20179;-68
2022/01/11 11:44:26;;;;;;;50.15;23.67;;;;;;;;;;5095817;28;20205;-68
2022/01/11 11:46:59;;;;;;;55.05;26.30;;;;;;;;;;5095783;28;20168;-68
2022/01/11 11:49:45;;;;;;;46.60;24.30;;;;;;;;;;5095747;28;20163;-68
2022/01/11 11:52:27;;;;;;;64.75;28.23;;;;;;;;;;5095701;28;20213;-67
2022/01/11 11:54:57;;;;;;;45.60;24.05;;;;;;;;;;5095790;28;20178;-67
2022/01/11 11:57:25;;;;;;;39.80;23.08;;;;;;;;;;5095617;28;20167;-67
2022/01/11 11:59:56;;;;;;;75.65;21.83;;;;;;;;;;5095568;28;20178;-66
2022/01/11 12:02:32;;;;;;;40.40;23.38;;;;;;;;;;5095499;28;20178;-66
2022/01/11 12:04:59;;;;;;;54.60;26.85;;;;;;;;;;5095222;28;20808;-65
2022/01/11 12:07:31;;;;;;;44.65;25.52;;;;;;;;;;5095038;28;20518;-66
2022/01/11 12:09:57;;;;;;;44.55;24.50;;;;;;;;;;5095104;28;20171;-66
2022/01/11 12:12:51;;;;;;;51.83;28.58;;;;;;;;;;5095217;28;20265;-65
2022/01/11 12:15:23;;;;;;;45.25;27.00;;;;;;;;;;5092713;28;20226;-66
2022/01/11 12:18:09;;;;;;;45.88;27.77;;;;;;;;;;5095300;28;20175;-66
2022/01/11 12:20:49;;;;;;;47.00;29.20;;;;;;;;;;5095031;28;20247;-66
2022/01/11 12:23:35;;;;;;;46.03;28.42;;;;;;;;;;5094918;28;20686;-66
2022/01/11 12:26:16;;;;;;;40.60;23.75;;;;;;;;;;5094817;28;20630;-67
2022/01/11 12:28:43;;;;;;;50.22;25.50;;;;;;;;;;5094978;28;20621;-67
2022/01/11 12:31:29;;;;;;;43.67;25.30;;;;;;;;;;5094971;28;20168;-68
2022/01/11 12:33:56;;;;;;;55.78;27.45;;;;;;;;;;5095070;28;20178;-67
2022/01/11 12:36:22;;;;;;;39.75;24.77;;;;;;;;;;5094892;28;20220;-66
2022/01/11 12:39:01;;;;;;;41.83;24.80;;;;;;;;;;5095084;28;20186;-67
2022/01/11 12:41:29;;;;;;;42.33;23.60;;;;;;;;;;5093491;28;20175;-66
2022/01/11 12:44:18;;;;;;;39.70;24.73;;;;;;;;;;5094617;28;20300;-66
2022/01/11 12:46:54;;;;;;;38.15;24.40;;;;;;;;;;5094710;28;20660;-72
2022/01/11 12:49:21;;;;;;;40.67;24.02;;;;;;;;;;5094659;28;20168;-65
2022/01/11 12:52:08;;;;;;;38.75;23.58;;;;;;;;;;5094669;28;20250;-64
2022/01/11 12:54:34;;;;;;;43.15;26.38;;;;;;;;;;5094381;28;20218;-65
2022/01/11 12:57:01;;;;;;;46.20;25.90;;;;;;;;;;5094472;28;20618;-65
2022/01/11 12:59:33;;;;;;;38.60;24.05;;;;;;;;;;5094516;28;20496;-65
2022/01/11 13:02:01;;;;;;;41.88;24.83;;;;;;;;;;5094694;28;20175;-64
2022/01/11 13:04:39;;;;;;;44.53;25.85;;;;;;;;;;5094410;28;20218;-69
2022/01/11 13:07:12;;;;;;;44.67;25.73;;;;;;;;;;5094315;28;20242;-63
2022/01/11 13:09:39;;;;;;;38.88;25.50;;;;;;;;;;5094576;28;20258;-63
2022/01/11 13:12:05;;;;;;;48.10;25.33;;;;;;;;;;5094259;28;20185;-64
2022/01/11 13:14:31;;;;;;;37.10;23.02;;;;;;;;;;5094289;28;20181;-61
2022/01/11 13:17:01;;;;;;;43.28;24.38;;;;;;;;;;5094178;28;20352;-62
2022/01/11 13:19:30;;;;;;;39.35;24.50;;;;;;;;;;5093945;28;20713;-63
2022/01/11 13:22:03;;;;;;;36.78;23.08;;;;;;;;;;5094025;28;20175;-62
2022/01/11 13:24:35;;;;;;;36.35;22.85;;;;;;;;;;5094050;28;20202;-62
2022/01/11 13:27:01;;;;;;;42.58;25.80;;;;;;;;;;5094249;28;20180;-62
2022/01/11 13:29:29;;;;;;;39.57;24.30;;;;;;;;;;5093880;28;20167;-62
2022/01/11 13:31:55;;;;;;;41.25;25.67;;;;;;;;;;5093885;28;20872;-62
2022/01/11 13:34:23;;;;;;;48.50;29.53;;;;;;;;;;5093943;28;20167;-63
2022/01/11 13:36:52;;;;;;;45.00;26.35;;;;;;;;;;5093765;28;20770;-73
2022/01/11 13:39:24;;;;;;;46.17;27.38;;;;;;;;;;5093880;28;20168;-63
2022/01/11 13:41:51;;;;;;;40.85;25.35;;;;;;;;;;5094049;28;20171;-72
2022/01/11 13:44:24;;;;;;;38.35;25.17;;;;;;;;;;5093966;28;20209;-64
2022/01/11 13:46:50;;;;;;;39.55;25.52;;;;;;;;;;5093730;28;20618;-64
2022/01/11 13:49:19;;;;;;;41.30;25.73;;;;;;;;;;5092422;28;20266;-66
2022/01/11 13:51:46;;;;;;;43.50;28.33;;;;;;;;;;5093659;28;20380;-63
2022/01/11 13:54:13;;;;;;;40.20;26.80;;;;;;;;;;5093601;28;20171;-64
2022/01/11 13:56:39;;;;;;;42.60;26.75;;;;;;;;;;5092326;28;20179;-64
2022/01/11 13:59:06;;;;;;;48.00;30.75;;;;;;;;;;5093765;28;20262;-63
2022/01/11 14:01:32;;;;;;;46.40;28.60;;;;;;;;;;5093784;28;20171;-64
2022/01/11 14:04:24;;;;;;;46.63;27.80;;;;;;;;;;5093375;28;20167;-64
2022/01/11 14:06:53;;;;;;;49.13;29.02;;;;;;;;;;5090593;28;20413;-63
2022/01/11 14:09:32;;;;;;;49.45;28.35;;;;;;;;;;5093750;28;20175;-63
2022/01/11 14:12:22;;;;;;;46.03;27.85;;;;;;;;;;5093714;28;20175;-64
2022/01/11 14:14:51;;;;;;;49.13;27.67;;;;;;;;;;5093391;28;20223;-65
2022/01/11 14:17:18;;;;;;;50.20;30.15;;;;;;;;;;5093272;28;20689;-64
2022/01/11 14:19:45;;;;;;;50.17;28.60;;;;;;;;;;5093364;28;20172;-64
2022/01/11 14:22:12;;;;;;;54.88;31.73;;;;;;;;;;5093445;28;20174;-64
2022/01/11 14:24:50;;;;;;;49.85;30.75;;;;;;;;;;5093266;28;20190;-64